Terminal Aerodrome Forecast
Issued by NWS Twin Cities, MN

Home | Current Version | Previous Version | Graphics & Text | Print | Product List | Glossary On
Versions: 1 2 3 4 5 6 7 8 9 10 11 12 13 14 15 16 17 18 19 20 21 22 23 24 25 26 27
211
FTUS43 KMPX 272010 AAA
TAFMSP
TAF AMD
KMSP 272010Z 2720/2824 08020G28KT P6SM VCSH OVC080
     FM272100 08020G30KT 6SM -RA BKN035 OVC070
      TEMPO 2800/2804 4SM RA BR OVC020
     FM280400 06014G21KT P6SM -RA OVC030
     FM281000 06012KT 5SM -RA BR SCT015 OVC025
     FM281500 06010KT P6SM SCT015 OVC040=

USA.gov is the U.S. government's official web portal to all federal, state and local government web resources and services.